createdAt,value
2022-08-01T00:00:24.038Z,22.43
2022-08-01T00:01:24.054Z,22.42
2022-08-01T00:02:24.048Z,22.42
2022-08-01T00:03:24.018Z,22.41
2022-08-01T00:04:24.953Z,22.40
2022-08-01T00:05:24.029Z,22.40
2022-08-01T00:06:24.042Z,22.39
2022-08-01T00:07:23.960Z,22.39
2022-08-01T00:08:23.299Z,22.38
2022-08-01T00:09:25.701Z,22.36
2022-08-01T00:10:24.250Z,22.35
2022-08-01T00:11:23.633Z,22.34
2022-08-01T00:12:23.281Z,22.33
2022-08-01T00:13:23.211Z,22.33
2022-08-01T00:14:23.223Z,22.32
2022-08-01T00:15:24.962Z,22.31
2022-08-01T00:16:23.907Z,22.31
2022-08-01T00:17:23.374Z,22.30
2022-08-01T00:18:24.309Z,22.28
2022-08-01T00:19:23.203Z,22.27
2022-08-01T00:20:23.291Z,22.27
2022-08-01T00:21:23.403Z,22.26
2022-08-01T00:22:23.124Z,22.25
2022-08-01T00:23:23.802Z,22.24
2022-08-01T00:24:23.137Z,22.23
2022-08-01T00:25:34.310Z,22.21
2022-08-01T00:26:24.330Z,22.21
2022-08-01T00:27:23.817Z,22.19
2022-08-01T00:28:23.756Z,22.17
2022-08-01T00:30:11.765Z,22.15
2022-08-01T00:30:24.307Z,22.13
2022-08-01T00:31:25.329Z,22.11
2022-08-01T00:32:25.777Z,22.10
2022-08-01T00:33:23.675Z,22.09
2022-08-01T00:34:23.051Z,22.06
2022-08-01T00:35:23.677Z,22.05
2022-08-01T00:36:23.017Z,22.03
2022-08-01T00:37:23.974Z,22.01
2022-08-01T00:38:22.991Z,22.00
2022-08-01T00:39:23.820Z,21.98
2022-08-01T00:40:23.125Z,21.96
2022-08-01T00:41:23.732Z,21.95
2022-08-01T00:42:23.120Z,21.93
2022-08-01T00:43:23.141Z,21.92
2022-08-01T00:44:23.171Z,21.90
2022-08-01T00:45:22.880Z,21.89
2022-08-01T00:46:23.393Z,21.87
2022-08-01T00:47:24.696Z,21.86
2022-08-01T00:48:22.911Z,21.86
2022-08-01T00:49:22.892Z,21.83
2022-08-01T00:50:22.883Z,21.83
2022-08-01T00:51:23.641Z,21.81
2022-08-01T00:52:23.533Z,21.80
2022-08-01T00:53:22.806Z,21.79
2022-08-01T00:54:23.445Z,21.76
2022-08-01T00:55:22.813Z,21.74
2022-08-01T00:56:22.826Z,21.71
2022-08-01T00:58:02.315Z,21.68
2022-08-01T00:58:24.699Z,21.64
2022-08-01T00:59:23.404Z,21.61
2022-08-01T01:00:27.195Z,21.57
2022-08-01T01:01:24.257Z,21.55
2022-08-01T01:02:24.683Z,21.53
2022-08-01T01:03:26.333Z,21.51
2022-08-01T01:04:23.659Z,21.49
2022-08-01T01:05:22.676Z,21.49
2022-08-01T01:06:23.327Z,21.48
2022-08-01T01:07:22.672Z,21.47
2022-08-01T01:08:23.370Z,21.46
2022-08-01T01:09:22.639Z,21.46
2022-08-01T01:10:22.638Z,21.47
2022-08-01T01:11:23.279Z,21.48
2022-08-01T01:12:23.259Z,21.48
2022-08-01T01:13:22.600Z,21.49
2022-08-01T01:14:22.583Z,21.48
2022-08-01T01:15:22.583Z,21.48
2022-08-01T01:16:22.544Z,21.48
2022-08-01T01:17:49.700Z,21.49
2022-08-01T01:18:24.458Z,21.50
2022-08-01T01:19:22.501Z,21.51
2022-08-01T01:20:22.637Z,21.52
2022-08-01T01:21:22.606Z,21.52
2022-08-01T01:22:22.472Z,21.52
2022-08-01T01:23:22.490Z,21.53
2022-08-01T01:24:23.123Z,21.53
2022-08-01T01:25:23.122Z,21.53
2022-08-01T01:26:23.456Z,21.54
2022-08-01T01:27:22.414Z,21.55
2022-08-01T01:28:22.406Z,21.56
2022-08-01T01:29:22.384Z,21.56
2022-08-01T01:30:22.436Z,21.58
2022-08-01T01:31:23.075Z,21.58
2022-08-01T01:32:28.637Z,21.59
2022-08-01T01:33:24.286Z,21.60
2022-08-01T01:34:22.366Z,21.62
2022-08-01T01:35:23.008Z,21.63
2022-08-01T01:36:22.988Z,21.64
2022-08-01T01:37:22.988Z,21.65
2022-08-01T01:38:22.359Z,21.66
2022-08-01T01:39:22.967Z,21.67
2022-08-01T01:40:22.277Z,21.67
2022-08-01T01:41:23.689Z,21.68
2022-08-01T01:42:22.929Z,21.68
2022-08-01T01:43:22.249Z,21.68
2022-08-01T01:44:23.284Z,21.68
2022-08-01T01:45:22.247Z,21.69
2022-08-01T01:46:22.890Z,21.69
2022-08-01T01:47:23.016Z,21.68
2022-08-01T01:48:22.186Z,21.67
2022-08-01T01:49:22.883Z,21.66
2022-08-01T01:50:22.273Z,21.66
2022-08-01T01:51:22.831Z,21.65
2022-08-01T01:52:22.175Z,21.64
2022-08-01T01:53:22.173Z,21.63
2022-08-01T01:54:22.177Z,21.62
2022-08-01T01:55:22.121Z,21.63
2022-08-01T01:56:22.198Z,21.63
2022-08-01T01:57:22.085Z,21.64
2022-08-01T01:58:22.754Z,21.66
2022-08-01T01:59:25.695Z,21.65
2022-08-01T02:00:22.053Z,21.66
2022-08-01T02:01:58.403Z,21.66
2022-08-01T02:02:24.533Z,21.68
2022-08-01T02:03:22.029Z,21.69
2022-08-01T02:04:22.689Z,21.70
2022-08-01T02:05:22.678Z,21.71
2022-08-01T02:06:21.978Z,21.72
2022-08-01T02:07:21.982Z,21.72
2022-08-01T02:08:22.007Z,21.73
2022-08-01T02:09:22.637Z,21.74
2022-08-01T02:10:21.977Z,21.74
2022-08-01T02:11:22.929Z,21.74
2022-08-01T02:12:21.921Z,21.75
2022-08-01T02:13:21.948Z,21.75
2022-08-01T02:14:21.959Z,21.75
2022-08-01T02:15:21.932Z,21.76
2022-08-01T02:16:22.562Z,21.77
2022-08-01T02:17:22.554Z,21.78
2022-08-01T02:18:23.922Z,21.78
2022-08-01T02:19:22.521Z,21.79
2022-08-01T02:20:21.856Z,21.79
2022-08-01T02:21:21.843Z,21.81
2022-08-01T02:22:22.499Z,21.81
2022-08-01T02:23:21.825Z,21.83
2022-08-01T02:24:21.785Z,21.82
2022-08-01T02:25:22.817Z,21.83
2022-08-01T02:26:22.445Z,21.85
2022-08-01T02:27:21.804Z,21.85
2022-08-01T02:28:22.426Z,21.87
2022-08-01T02:29:21.734Z,21.87
2022-08-01T02:30:21.864Z,21.87
2022-08-01T02:31:22.397Z,21.87
2022-08-01T02:32:21.718Z,21.88
2022-08-01T02:33:22.390Z,21.88
2022-08-01T02:34:22.366Z,21.88
2022-08-01T02:35:22.361Z,21.90
2022-08-01T02:36:30.853Z,21.90
2022-08-01T02:37:22.696Z,21.90
2022-08-01T02:38:22.334Z,21.91
2022-08-01T02:39:22.317Z,21.91
2022-08-01T02:40:22.298Z,21.92
2022-08-01T02:41:21.634Z,21.93
2022-08-01T02:42:21.679Z,21.92
2022-08-01T02:43:22.279Z,21.92
2022-08-01T02:44:22.262Z,21.92
2022-08-01T02:45:21.571Z,21.92
2022-08-01T02:46:21.540Z,21.92
2022-08-01T02:47:21.560Z,21.92
2022-08-01T02:48:21.569Z,21.92
2022-08-01T02:49:21.610Z,21.92
2022-08-01T02:50:22.199Z,21.90
2022-08-01T02:51:22.183Z,21.89
2022-08-01T02:52:22.172Z,21.89
2022-08-01T02:53:22.172Z,21.88
2022-08-01T02:54:22.500Z,21.88
2022-08-01T02:55:22.153Z,21.87
2022-08-01T02:56:22.134Z,21.86
2022-08-01T02:57:22.149Z,21.86
2022-08-01T02:58:21.426Z,21.85
2022-08-01T02:59:22.589Z,21.85
2022-08-01T03:00:23.693Z,21.83
2022-08-01T03:01:22.123Z,21.81
2022-08-01T03:02:22.076Z,21.79
2022-08-01T03:03:22.067Z,21.76
2022-08-01T03:04:25.744Z,21.74
2022-08-01T03:05:24.603Z,21.71
2022-08-01T03:06:21.421Z,21.68
2022-08-01T03:07:21.317Z,21.65
2022-08-01T03:08:21.318Z,21.62
2022-08-01T03:09:21.997Z,21.60
2022-08-01T03:10:21.779Z,21.59
2022-08-01T03:11:21.978Z,21.57
2022-08-01T03:12:22.068Z,21.56
2022-08-01T03:13:22.476Z,21.54
2022-08-01T03:14:21.939Z,21.54
2022-08-01T03:15:21.264Z,21.53
2022-08-01T03:16:21.921Z,21.53
2022-08-01T03:17:21.300Z,21.52
2022-08-01T03:18:21.911Z,21.53
2022-08-01T03:19:21.231Z,21.52
2022-08-01T03:20:21.876Z,21.50
2022-08-01T03:21:21.870Z,21.49
2022-08-01T03:22:21.174Z,21.48
2022-08-01T03:23:21.303Z,21.47
2022-08-01T03:24:21.832Z,21.48
2022-08-01T03:25:21.828Z,21.48
2022-08-01T03:26:21.148Z,21.49
2022-08-01T03:27:21.251Z,21.49
2022-08-01T03:28:21.124Z,21.49
2022-08-01T03:29:21.105Z,21.49
2022-08-01T03:30:21.094Z,21.49
2022-08-01T03:31:21.756Z,21.49
2022-08-01T03:32:21.750Z,21.49
2022-08-01T03:33:21.071Z,21.49
2022-08-01T03:34:21.739Z,21.47
2022-08-01T03:35:21.717Z,21.46
2022-08-01T03:36:21.708Z,21.44
2022-08-01T03:37:21.689Z,21.42
2022-08-01T03:38:21.033Z,21.40
2022-08-01T03:39:21.020Z,21.38
2022-08-01T03:40:21.048Z,21.37
2022-08-01T03:41:21.657Z,21.35
2022-08-01T03:42:21.653Z,21.32
2022-08-01T03:43:21.630Z,21.30
2022-08-01T03:44:21.628Z,21.30
2022-08-01T03:45:21.610Z,21.29
2022-08-01T03:46:21.626Z,21.28
2022-08-01T03:47:21.591Z,21.26
2022-08-01T03:48:21.580Z,21.25
2022-08-01T03:49:21.037Z,21.26
2022-08-01T03:50:20.913Z,21.26
2022-08-01T03:51:20.858Z,21.26
2022-08-01T03:52:21.572Z,21.27
2022-08-01T03:53:21.522Z,21.29
2022-08-01T03:54:22.552Z,21.30
2022-08-01T03:55:22.596Z,21.30
2022-08-01T03:56:21.032Z,21.32
2022-08-01T03:57:35.666Z,21.34
2022-08-01T03:58:21.862Z,21.35
2022-08-01T03:59:20.776Z,21.37
2022-08-01T04:00:20.876Z,21.39
2022-08-01T04:01:20.857Z,21.41
2022-08-01T04:02:22.915Z,21.42
2022-08-01T04:03:23.684Z,21.43
2022-08-01T04:04:20.775Z,21.44
2022-08-01T04:05:20.726Z,21.43
2022-08-01T04:06:20.687Z,21.44
2022-08-01T04:07:22.778Z,21.45
2022-08-01T04:08:21.363Z,21.46
2022-08-01T04:09:20.682Z,21.46
2022-08-01T04:10:20.719Z,21.47
2022-08-01T04:11:21.325Z,21.48
2022-08-01T04:12:20.629Z,21.50
2022-08-01T04:13:20.649Z,21.49
2022-08-01T04:14:20.638Z,21.50
2022-08-01T04:15:20.651Z,21.50
2022-08-01T04:16:21.269Z,21.50
2022-08-01T04:17:20.592Z,21.51
2022-08-01T04:18:21.250Z,21.50
2022-08-01T04:19:20.580Z,21.50
2022-08-01T04:20:21.231Z,21.50
2022-08-01T04:21:21.223Z,21.50
2022-08-01T04:22:21.203Z,21.49
2022-08-01T04:23:21.191Z,21.51
2022-08-01T04:24:21.190Z,21.52
2022-08-01T04:25:20.532Z,21.54
2022-08-01T04:26:21.162Z,21.55
2022-08-01T04:27:49.091Z,21.57
2022-08-01T04:28:22.141Z,21.59
2022-08-01T04:29:21.127Z,21.61
2022-08-01T04:30:21.207Z,21.63
2022-08-01T04:31:20.457Z,21.64
2022-08-01T04:32:20.454Z,21.65
2022-08-01T04:33:21.086Z,21.66
2022-08-01T04:34:20.482Z,21.66
2022-08-01T04:35:22.824Z,21.67
2022-08-01T04:36:22.374Z,21.68
2022-08-01T04:37:21.048Z,21.70
2022-08-01T04:38:21.037Z,21.71
2022-08-01T04:39:20.398Z,21.72
2022-08-01T04:40:20.468Z,21.74
2022-08-01T04:41:20.328Z,21.75
2022-08-01T04:42:26.007Z,21.76
2022-08-01T04:43:21.978Z,21.78
2022-08-01T04:44:20.347Z,21.79
2022-08-01T04:45:20.308Z,21.81
2022-08-01T04:46:20.959Z,21.82
2022-08-01T04:47:20.300Z,21.84
2022-08-01T04:48:20.276Z,21.86
2022-08-01T04:49:22.217Z,21.88
2022-08-01T04:50:20.902Z,21.90
2022-08-01T04:51:20.894Z,21.94
2022-08-01T04:52:24.747Z,21.98
2022-08-01T04:53:20.884Z,22.02
2022-08-01T04:54:20.863Z,22.07
2022-08-01T04:55:20.852Z,22.12
2022-08-01T04:56:20.172Z,22.16
2022-08-01T04:57:20.830Z,22.18
2022-08-01T04:58:20.810Z,22.18
2022-08-01T04:59:20.449Z,22.20
2022-08-01T05:00:20.145Z,22.23
2022-08-01T05:01:20.215Z,22.27
2022-08-01T05:02:20.783Z,22.30
2022-08-01T05:03:20.762Z,22.33
2022-08-01T05:04:20.274Z,22.36
2022-08-01T05:05:20.074Z,22.39
2022-08-01T05:06:20.082Z,22.42
2022-08-01T05:07:20.749Z,22.44
2022-08-01T05:08:20.715Z,22.47
2022-08-01T05:09:20.707Z,22.49
2022-08-01T05:10:20.747Z,22.50
2022-08-01T05:11:22.542Z,22.50
2022-08-01T05:12:21.966Z,22.48
2022-08-01T05:13:20.659Z,22.48
2022-08-01T05:14:20.648Z,22.47
2022-08-01T05:15:20.641Z,22.46
2022-08-01T05:16:20.047Z,22.46
2022-08-01T05:17:20.007Z,22.46
2022-08-01T05:18:27.785Z,22.46
2022-08-01T05:19:21.590Z,22.45
2022-08-01T05:20:19.912Z,22.44
2022-08-01T05:21:19.905Z,22.45
2022-08-01T05:22:20.573Z,22.45
2022-08-01T05:23:36.481Z,22.43
2022-08-01T05:24:20.881Z,22.41
2022-08-01T05:25:33.834Z,22.40
2022-08-01T05:26:21.773Z,22.39
2022-08-01T05:27:20.512Z,22.39
2022-08-01T05:28:20.490Z,22.39
2022-08-01T05:29:20.495Z,22.38
2022-08-01T05:30:20.499Z,22.38
2022-08-01T05:31:20.474Z,22.38
2022-08-01T05:32:19.807Z,22.39
2022-08-01T05:33:20.494Z,22.38
2022-08-01T05:34:21.364Z,22.38
2022-08-01T05:35:20.437Z,22.38
2022-08-01T05:36:19.835Z,22.39
2022-08-01T05:37:21.635Z,22.39
2022-08-01T05:38:19.728Z,22.39
2022-08-01T05:39:20.387Z,22.39
2022-08-01T05:40:20.460Z,22.39
2022-08-01T05:41:19.708Z,22.41
2022-08-01T05:42:20.355Z,22.42
2022-08-01T05:43:19.692Z,22.43
2022-08-01T05:44:19.679Z,22.46
2022-08-01T05:45:21.127Z,22.46
2022-08-01T05:46:20.323Z,22.47
2022-08-01T05:47:20.303Z,22.49
2022-08-01T05:48:20.287Z,22.50
2022-08-01T05:49:20.316Z,22.51
2022-08-01T05:50:20.271Z,22.51
2022-08-01T05:51:20.261Z,22.53
2022-08-01T05:52:20.251Z,22.56
2022-08-01T05:53:20.266Z,22.60
2022-08-01T05:54:20.230Z,22.63
2022-08-01T05:55:19.530Z,22.67
2022-08-01T05:56:20.972Z,22.73
2022-08-01T05:57:19.593Z,22.77
2022-08-01T05:58:20.596Z,22.80
2022-08-01T05:59:19.501Z,22.82
2022-08-01T06:00:19.533Z,22.81
2022-08-01T06:01:19.494Z,22.79
2022-08-01T06:02:19.493Z,22.77
2022-08-01T06:03:19.459Z,22.77
2022-08-01T06:04:19.539Z,22.78
2022-08-01T06:05:19.472Z,22.80
2022-08-01T06:06:20.115Z,22.80
2022-08-01T06:07:20.414Z,22.75
2022-08-01T06:08:20.076Z,22.69
2022-08-01T06:09:20.066Z,22.60
2022-08-01T06:10:20.058Z,22.50
2022-08-01T06:11:19.375Z,22.39
2022-08-01T06:12:20.038Z,22.29
2022-08-01T06:13:19.367Z,22.20
2022-08-01T06:14:20.016Z,22.13
2022-08-01T06:15:19.337Z,22.04
2022-08-01T06:16:19.356Z,21.98
2022-08-01T06:17:19.988Z,21.90
2022-08-01T06:18:21.645Z,21.85
2022-08-01T06:19:19.292Z,21.81
2022-08-01T06:20:19.282Z,21.76
2022-08-01T06:21:19.252Z,21.72
2022-08-01T06:22:19.292Z,21.68
2022-08-01T06:23:32.318Z,21.66
2022-08-01T06:24:22.189Z,21.64
2022-08-01T06:25:21.185Z,21.63
2022-08-01T06:26:19.222Z,21.63
2022-08-01T06:27:22.326Z,21.62
2022-08-01T06:28:19.861Z,21.65
2022-08-01T06:29:21.527Z,21.69
2022-08-01T06:30:21.218Z,21.74
2022-08-01T06:31:19.155Z,21.79
2022-08-01T06:32:26.956Z,21.84
2022-08-01T06:33:20.183Z,21.91
2022-08-01T06:34:19.802Z,21.96
2022-08-01T06:35:19.787Z,22.02
2022-08-01T06:36:19.774Z,22.09
2022-08-01T06:37:19.087Z,22.12
2022-08-01T06:38:19.771Z,22.17
2022-08-01T06:39:19.204Z,22.19
2022-08-01T06:40:20.826Z,22.21
2022-08-01T06:41:19.725Z,22.24
2022-08-01T06:42:19.139Z,22.26
2022-08-01T06:43:19.706Z,22.30
2022-08-01T06:44:19.016Z,22.33
2022-08-01T06:45:19.666Z,22.35
2022-08-01T06:46:19.910Z,22.38
2022-08-01T06:47:18.967Z,22.44
2022-08-01T06:48:19.647Z,22.46
2022-08-01T06:49:19.022Z,22.47
2022-08-01T06:50:19.630Z,22.47
2022-08-01T06:51:19.288Z,22.45
2022-08-01T06:52:18.944Z,22.44
2022-08-01T06:53:19.588Z,22.42
2022-08-01T06:54:18.909Z,22.39
2022-08-01T06:55:19.580Z,22.37
2022-08-01T06:56:18.882Z,22.35
2022-08-01T06:57:18.919Z,22.33
2022-08-01T06:58:18.875Z,22.30
2022-08-01T06:59:18.863Z,22.28
2022-08-01T07:00:18.860Z,22.26
2022-08-01T07:01:18.941Z,22.24
2022-08-01T07:02:19.032Z,22.23
2022-08-01T07:03:19.485Z,22.23
2022-08-01T07:04:18.822Z,22.23
2022-08-01T07:05:19.461Z,22.25
2022-08-01T07:06:18.774Z,22.27
2022-08-01T07:07:18.772Z,22.27
2022-08-01T07:08:18.744Z,22.27
2022-08-01T07:09:18.774Z,22.28
2022-08-01T07:10:19.571Z,22.29
2022-08-01T07:11:19.411Z,22.30
2022-08-01T07:12:18.712Z,22.29
2022-08-01T07:13:20.125Z,22.27
2022-08-01T07:14:21.155Z,22.25
2022-08-01T07:15:19.345Z,22.22
2022-08-01T07:16:19.355Z,22.19
2022-08-01T07:17:19.337Z,22.18
2022-08-01T07:18:19.336Z,22.18
2022-08-01T07:19:19.478Z,22.20
2022-08-01T07:20:19.321Z,22.23
2022-08-01T07:21:40.055Z,22.27
2022-08-01T07:22:23.217Z,22.31
2022-08-01T07:23:19.280Z,22.36
2022-08-01T07:24:21.013Z,22.44
2022-08-01T07:25:19.249Z,22.51
2022-08-01T07:26:19.263Z,22.59
2022-08-01T07:27:24.369Z,22.66
2022-08-01T07:28:19.560Z,22.72
2022-08-01T07:29:19.213Z,22.74
2022-08-01T07:30:19.200Z,22.76
2022-08-01T07:31:19.190Z,22.73
2022-08-01T07:32:19.189Z,22.71
2022-08-01T07:33:19.257Z,22.68
2022-08-01T07:34:19.160Z,22.65
2022-08-01T07:35:19.431Z,22.61
2022-08-01T07:36:19.150Z,22.57
2022-08-01T07:37:18.452Z,22.54
2022-08-01T07:38:21.365Z,22.50
2022-08-01T07:39:19.119Z,22.47
2022-08-01T07:40:19.095Z,22.44
2022-08-01T07:41:19.086Z,22.42
2022-08-01T07:42:18.403Z,22.42
2022-08-01T07:43:19.337Z,22.43
2022-08-01T07:44:19.042Z,22.45
2022-08-01T07:45:18.354Z,22.47
2022-08-01T07:46:19.029Z,22.50
2022-08-01T07:47:19.024Z,22.54
2022-08-01T07:48:19.298Z,22.61
2022-08-01T07:49:19.052Z,22.70
2022-08-01T07:50:20.309Z,22.77
2022-08-01T07:51:18.305Z,22.86
2022-08-01T07:52:20.814Z,23.00
2022-08-01T07:53:18.287Z,23.20
2022-08-01T07:54:19.237Z,23.42
2022-08-01T07:55:18.256Z,23.63
2022-08-01T07:56:18.908Z,23.83
2022-08-01T07:57:18.250Z,24.03
2022-08-01T07:58:18.236Z,24.20
2022-08-01T07:59:26.156Z,24.36
2022-08-01T08:00:20.642Z,24.51
2022-08-01T08:01:19.091Z,24.63
2022-08-01T08:02:18.297Z,24.75
2022-08-01T08:03:18.851Z,24.79
2022-08-01T08:04:18.835Z,24.81
2022-08-01T08:05:57.689Z,24.80
2022-08-01T08:06:21.141Z,24.82
2022-08-01T08:07:18.811Z,24.82
2022-08-01T08:08:19.571Z,24.83
2022-08-01T08:09:19.047Z,24.85
2022-08-01T08:10:18.791Z,24.88
2022-08-01T08:11:18.774Z,24.88
2022-08-01T08:12:18.743Z,24.87
2022-08-01T08:13:19.078Z,24.85
2022-08-01T08:14:19.496Z,24.78
2022-08-01T08:15:18.074Z,24.71
2022-08-01T08:16:18.704Z,24.65
2022-08-01T08:17:18.694Z,24.58
2022-08-01T08:18:18.769Z,24.53
2022-08-01T08:19:18.328Z,24.49
2022-08-01T08:20:17.994Z,24.48
2022-08-01T08:21:17.984Z,24.48
2022-08-01T08:22:18.978Z,24.48
2022-08-01T08:23:26.498Z,24.50
2022-08-01T08:24:20.388Z,24.51
2022-08-01T08:25:20.336Z,24.54
2022-08-01T08:26:17.947Z,24.54
2022-08-01T08:27:19.211Z,24.54
2022-08-01T08:28:18.578Z,24.51
2022-08-01T08:29:19.840Z,24.49
2022-08-01T08:30:19.319Z,24.47
2022-08-01T08:31:25.695Z,24.42
2022-08-01T08:32:18.879Z,24.35
2022-08-01T08:33:17.850Z,24.28
2022-08-01T08:34:18.516Z,24.20
2022-08-01T08:35:40.147Z,24.11
2022-08-01T08:36:19.762Z,24.05
2022-08-01T08:37:18.472Z,24.02
2022-08-01T08:38:17.825Z,24.02
2022-08-01T08:39:19.679Z,24.04
2022-08-01T08:40:17.785Z,24.09
2022-08-01T08:41:21.375Z,24.15
2022-08-01T08:42:18.426Z,24.23
2022-08-01T08:43:17.734Z,24.31
2022-08-01T08:44:17.939Z,24.41
2022-08-01T08:45:17.715Z,24.52
2022-08-01T08:46:17.723Z,24.64
2022-08-01T08:47:21.177Z,24.77
2022-08-01T08:48:17.687Z,24.93
2022-08-01T08:49:17.794Z,25.12
2022-08-01T08:50:18.337Z,25.36
2022-08-01T08:51:17.682Z,25.59
2022-08-01T08:52:18.579Z,25.81
2022-08-01T08:53:19.025Z,26.02
2022-08-01T08:54:17.638Z,26.22
2022-08-01T08:55:18.288Z,26.39
2022-08-01T08:56:17.590Z,26.51
2022-08-01T08:57:17.654Z,26.58
2022-08-01T08:58:18.248Z,26.61
2022-08-01T08:59:18.321Z,26.59
2022-08-01T09:00:17.582Z,26.51
2022-08-01T09:01:17.578Z,26.35
2022-08-01T09:02:19.238Z,26.16
2022-08-01T09:03:18.245Z,25.95
2022-08-01T09:04:18.195Z,25.71
2022-08-01T09:05:19.626Z,25.46
2022-08-01T09:06:17.564Z,25.23
2022-08-01T09:07:17.511Z,25.03
2022-08-01T09:08:18.141Z,24.84
2022-08-01T09:09:17.472Z,24.67
2022-08-01T09:10:18.165Z,24.51
2022-08-01T09:11:22.943Z,24.39
2022-08-01T09:12:19.106Z,24.30
2022-08-01T09:13:18.103Z,24.20
2022-08-01T09:14:17.403Z,24.10
2022-08-01T09:15:17.404Z,24.03
2022-08-01T09:16:17.425Z,23.99
2022-08-01T09:17:18.036Z,23.96
2022-08-01T09:18:18.035Z,23.97
2022-08-01T09:19:39.543Z,23.98
2022-08-01T09:20:19.276Z,24.03
2022-08-01T09:21:17.998Z,24.10
2022-08-01T09:22:17.316Z,24.19
2022-08-01T09:23:17.992Z,24.28
2022-08-01T09:24:17.298Z,24.38
2022-08-01T09:25:19.829Z,24.50
2022-08-01T09:26:19.192Z,24.63
2022-08-01T09:27:17.938Z,24.76
2022-08-01T09:28:17.257Z,24.88
2022-08-01T09:29:17.280Z,25.01
2022-08-01T09:30:23.265Z,25.12
2022-08-01T09:31:17.896Z,25.21
2022-08-01T09:32:17.907Z,25.26
2022-08-01T09:33:21.537Z,25.30
2022-08-01T09:34:19.749Z,25.33
2022-08-01T09:35:17.849Z,25.34
2022-08-01T09:36:17.541Z,25.38
2022-08-01T09:37:17.833Z,25.43
2022-08-01T09:38:18.156Z,25.47
2022-08-01T09:39:17.132Z,25.50
2022-08-01T09:40:17.124Z,25.50
2022-08-01T09:41:17.873Z,25.47
2022-08-01T09:42:17.127Z,25.44
2022-08-01T09:43:17.764Z,25.40
2022-08-01T09:44:17.767Z,25.35
2022-08-01T09:45:23.346Z,25.27
2022-08-01T09:46:18.084Z,25.15
2022-08-01T09:47:18.486Z,25.07
2022-08-01T09:48:18.078Z,25.03
2022-08-01T09:49:17.782Z,25.03
2022-08-01T09:50:17.738Z,25.09
2022-08-01T09:51:22.261Z,25.21
2022-08-01T09:52:18.136Z,25.39
2022-08-01T09:53:24.479Z,25.59
2022-08-01T09:54:18.020Z,25.81
2022-08-01T09:55:16.978Z,26.03
2022-08-01T09:56:16.948Z,26.23
2022-08-01T09:57:17.619Z,26.39
2022-08-01T09:58:17.993Z,26.53
2022-08-01T09:59:17.601Z,26.66
2022-08-01T10:00:35.728Z,26.78
2022-08-01T10:01:17.889Z,26.91
2022-08-01T10:02:16.920Z,27.04
2022-08-01T10:03:16.971Z,27.14
2022-08-01T10:04:17.407Z,27.24
2022-08-01T10:05:21.215Z,27.36
2022-08-01T10:06:17.522Z,27.50
2022-08-01T10:07:17.514Z,27.63
2022-08-01T10:08:23.149Z,27.75
2022-08-01T10:09:18.508Z,27.87
2022-08-01T10:10:17.507Z,27.98
2022-08-01T10:11:16.793Z,28.09
2022-08-01T10:12:16.815Z,28.21
2022-08-01T10:13:16.798Z,28.31
2022-08-01T10:14:18.084Z,28.35
2022-08-01T10:15:18.020Z,28.35
2022-08-01T10:16:16.776Z,28.34
2022-08-01T10:17:18.379Z,28.33
2022-08-01T10:18:26.228Z,28.33
2022-08-01T10:19:19.157Z,28.32
2022-08-01T10:20:29.032Z,28.24
2022-08-01T10:21:40.724Z,28.18
2022-08-01T10:22:17.766Z,28.12
2022-08-01T10:23:16.660Z,28.08
2022-08-01T10:24:18.843Z,28.07
2022-08-01T10:25:16.649Z,28.07
2022-08-01T10:26:19.577Z,28.08
2022-08-01T10:27:16.882Z,28.06
2022-08-01T10:28:23.671Z,28.05
2022-08-01T10:29:24.358Z,28.09
2022-08-01T10:30:23.353Z,28.17
2022-08-01T10:31:18.013Z,28.24
2022-08-01T10:32:16.582Z,28.29
2022-08-01T10:33:20.013Z,28.32
2022-08-01T10:34:19.037Z,28.31
2022-08-01T10:35:17.530Z,28.28
2022-08-01T10:36:17.533Z,28.24
2022-08-01T10:37:16.502Z,28.20
2022-08-01T10:38:17.183Z,28.17
2022-08-01T10:39:20.045Z,28.17
2022-08-01T10:40:29.903Z,28.18
2022-08-01T10:41:17.453Z,28.22
2022-08-01T10:42:16.534Z,28.31
2022-08-01T10:43:21.353Z,28.44
2022-08-01T10:44:18.198Z,28.58
2022-08-01T10:45:16.415Z,28.70
2022-08-01T10:46:17.496Z,28.82
2022-08-01T10:47:22.555Z,28.91
2022-08-01T10:48:20.675Z,28.97
2022-08-01T10:49:16.428Z,28.96
2022-08-01T10:50:21.914Z,28.90
2022-08-01T10:51:18.813Z,28.78
2022-08-01T10:52:17.037Z,28.63
2022-08-01T10:53:23.821Z,28.46
2022-08-01T10:54:17.518Z,28.26
2022-08-01T10:55:16.334Z,28.07
2022-08-01T10:56:16.795Z,27.86
2022-08-01T10:57:16.980Z,27.65
2022-08-01T10:58:16.335Z,27.50
2022-08-01T10:59:16.283Z,27.39
2022-08-01T11:00:17.942Z,27.33
2022-08-01T11:01:16.319Z,27.33
2022-08-01T11:02:16.931Z,27.34
2022-08-01T11:03:16.220Z,27.37
2022-08-01T11:04:18.314Z,27.42
2022-08-01T11:05:16.192Z,27.46
2022-08-01T11:06:16.205Z,27.51
2022-08-01T11:07:16.191Z,27.54
2022-08-01T11:08:16.246Z,27.59
2022-08-01T11:09:16.227Z,27.66
2022-08-01T11:10:16.175Z,27.72
2022-08-01T11:11:16.143Z,27.82
2022-08-01T11:12:22.977Z,27.89
2022-08-01T11:13:17.173Z,27.94
2022-08-01T11:14:22.627Z,27.97
2022-08-01T11:15:18.063Z,28.00
2022-08-01T11:16:20.330Z,28.05
2022-08-01T11:17:18.776Z,28.07
2022-08-01T11:18:17.776Z,28.10
2022-08-01T11:19:17.725Z,28.12
2022-08-01T11:20:16.053Z,28.13
2022-08-01T11:21:59.214Z,28.15
2022-08-01T11:22:17.029Z,28.17
2022-08-01T11:23:16.031Z,28.23
2022-08-01T11:24:15.999Z,28.31
2022-08-01T11:25:16.058Z,28.43
2022-08-01T11:26:17.403Z,28.58
2022-08-01T11:27:16.031Z,28.76
2022-08-01T11:28:24.858Z,28.93
2022-08-01T11:29:20.954Z,29.11
2022-08-01T11:30:17.006Z,29.28
2022-08-01T11:31:15.963Z,29.43
2022-08-01T11:32:15.924Z,29.55
2022-08-01T11:33:16.602Z,29.65
2022-08-01T11:34:17.833Z,29.72
2022-08-01T11:35:17.107Z,29.71
2022-08-01T11:36:16.001Z,29.71
2022-08-01T11:37:15.920Z,29.76
2022-08-01T11:38:15.854Z,29.84
2022-08-01T11:39:15.869Z,29.91
2022-08-01T11:40:15.891Z,29.99
2022-08-01T11:41:16.497Z,30.09
2022-08-01T11:42:16.496Z,30.20
2022-08-01T11:43:16.479Z,30.27
2022-08-01T11:44:16.515Z,30.29
2022-08-01T11:45:18.552Z,30.33
2022-08-01T11:46:15.766Z,30.37
2022-08-01T11:47:16.496Z,30.40
2022-08-01T11:48:17.668Z,30.46
2022-08-01T11:49:15.819Z,30.48
2022-08-01T11:50:15.740Z,30.47
2022-08-01T11:51:22.696Z,30.45
2022-08-01T11:52:16.947Z,30.43
2022-08-01T11:53:15.716Z,30.43
2022-08-01T11:54:15.709Z,30.44
2022-08-01T11:55:16.840Z,30.43
2022-08-01T11:56:15.692Z,30.40
2022-08-01T11:57:16.333Z,30.37
2022-08-01T11:58:22.581Z,30.30
2022-08-01T11:59:18.551Z,30.24
2022-08-01T12:00:17.487Z,30.18
2022-08-01T12:01:16.292Z,30.10
2022-08-01T12:02:15.628Z,30.04
2022-08-01T12:03:21.538Z,30.04
2022-08-01T12:04:19.044Z,30.07
2022-08-01T12:05:15.909Z,30.14
2022-08-01T12:06:15.612Z,30.23
2022-08-01T12:07:16.508Z,30.34
2022-08-01T12:08:15.616Z,30.48
2022-08-01T12:09:15.545Z,30.60
2022-08-01T12:10:16.449Z,30.70
2022-08-01T12:11:17.454Z,30.74
2022-08-01T12:12:16.175Z,30.75
2022-08-01T12:13:17.446Z,30.73
2022-08-01T12:14:15.467Z,30.70
2022-08-01T12:15:15.497Z,30.68
2022-08-01T12:16:16.173Z,30.62
2022-08-01T12:17:15.496Z,30.59
2022-08-01T12:18:16.144Z,30.56
2022-08-01T12:19:16.090Z,30.54
2022-08-01T12:20:15.409Z,30.55
2022-08-01T12:21:16.360Z,30.59
2022-08-01T12:22:15.404Z,30.62
2022-08-01T12:23:15.488Z,30.62
2022-08-01T12:24:16.054Z,30.62
2022-08-01T12:25:16.117Z,30.68
2022-08-01T12:26:31.812Z,30.74
2022-08-01T12:27:18.276Z,30.80
2022-08-01T12:28:16.022Z,30.81
2022-08-01T12:29:16.011Z,30.81
2022-08-01T12:30:15.306Z,30.81
2022-08-01T12:31:15.374Z,30.79
2022-08-01T12:32:15.988Z,30.76
2022-08-01T12:33:16.958Z,30.70
2022-08-01T12:34:15.958Z,30.65
2022-08-01T12:35:18.370Z,30.59
2022-08-01T12:36:15.935Z,30.47
2022-08-01T12:37:15.912Z,30.30
2022-08-01T12:38:15.912Z,30.19
2022-08-01T12:39:15.226Z,30.10
2022-08-01T12:40:15.887Z,30.03
2022-08-01T12:41:15.877Z,30.00
2022-08-01T12:42:15.857Z,29.95
2022-08-01T12:43:27.986Z,29.92
2022-08-01T12:44:18.091Z,29.89
2022-08-01T12:45:16.080Z,29.84
2022-08-01T12:46:15.828Z,29.75
2022-08-01T12:47:15.179Z,29.67
2022-08-01T12:48:15.802Z,29.61
2022-08-01T12:49:15.849Z,29.58
2022-08-01T12:50:16.031Z,29.57
2022-08-01T12:51:15.768Z,29.57
2022-08-01T12:52:15.756Z,29.55